createdAt,value
2023-05-03T00:00:03.067Z,9.3
2023-05-03T00:20:02.284Z,9.3
2023-05-03T00:40:02.559Z,9.4
2023-05-03T01:00:02.650Z,9.3
2023-05-03T01:20:02.742Z,8.9
2023-05-03T01:40:02.831Z,8.8
2023-05-03T02:00:02.749Z,8.4
2023-05-03T02:20:02.901Z,7.8
2023-05-03T02:40:02.234Z,7.4
2023-05-03T03:00:02.379Z,7
2023-05-03T03:20:02.864Z,6.7
2023-05-03T03:40:03.095Z,6.4
2023-05-03T04:00:03.100Z,6.3
2023-05-03T04:20:02.643Z,6.4
2023-05-03T04:40:02.659Z,6.8
2023-05-03T05:00:02.675Z,7.2
2023-05-03T05:20:02.733Z,7.7
2023-05-03T05:40:03.024Z,8.3
2023-05-03T06:00:02.949Z,9.2
2023-05-03T06:20:02.315Z,10.1
2023-05-03T06:40:02.639Z,11.2
2023-05-03T07:00:03.121Z,12.4
2023-05-03T07:20:03.186Z,12.9
2023-05-03T07:40:02.181Z,14.6
2023-05-03T08:00:02.698Z,15.9
2023-05-03T08:20:03.018Z,16
2023-05-03T08:40:03.513Z,16.6
2023-05-03T09:00:03.091Z,17.9
2023-05-03T09:20:02.693Z,16
2023-05-03T09:40:02.816Z,17.7
2023-05-03T10:00:03.034Z,18.1
2023-05-03T10:20:02.777Z,18.6
2023-05-03T10:40:02.239Z,19
2023-05-03T11:00:02.700Z,19
2023-05-03T11:20:02.299Z,19.4
2023-05-03T11:40:03.008Z,19.3
2023-05-03T12:00:02.738Z,19
2023-05-03T13:00:04.642Z,17.1
2023-05-03T13:20:03.202Z,16.2
2023-05-03T13:40:03.599Z,15.7
2023-05-03T14:00:03.905Z,15.4
2023-05-03T14:20:03.457Z,15.5
2023-05-03T14:40:03.768Z,15.5
2023-05-03T15:00:03.472Z,15.4
2023-05-03T15:20:03.424Z,15.3
2023-05-03T15:40:02.845Z,15.2
2023-05-03T16:00:03.389Z,15.4
2023-05-03T16:20:02.719Z,15.4
2023-05-03T16:40:02.811Z,15.2
2023-05-03T17:00:05.069Z,15.2
2023-05-03T17:20:04.217Z,15.4
2023-05-03T17:40:03.391Z,15
2023-05-03T18:00:02.757Z,14.7
2023-05-03T18:20:03.530Z,14
2023-05-03T18:40:03.023Z,13.4
2023-05-03T19:00:03.375Z,12.7
2023-05-03T19:20:03.870Z,12.3
2023-05-03T19:40:04.233Z,11.8
2023-05-03T20:00:03.637Z,11.3
2023-05-03T20:20:03.600Z,10.8
2023-05-03T20:40:03.941Z,10.3
2023-05-03T21:00:04.084Z,10
2023-05-03T21:20:03.237Z,9.5
2023-05-03T21:40:03.621Z,9.3
2023-05-03T22:00:02.453Z,8.9
2023-05-03T22:20:02.280Z,8.6
2023-05-03T22:40:03.094Z,8.2
2023-05-03T23:00:03.224Z,8
2023-05-03T23:20:02.338Z,7.6
2023-05-03T23:40:02.237Z,7.6
